Time;durP1;ratioP1;P1;durP2;ratioP2;P2;SDS_P1;SDS_P2;PMS_P1;PMS_P2;Temp;Humidity;BMP_temperature;BMP_pressure;BME280_temperature;BME280_humidity;BME280_pressure;Samples;Min_cycle;Max_cycle;Signal;HPM_P1;HPM_P2
2021/12/10 00:03:02;;;;;;;136.37;49.67;;;-0.60;99.90;;;;;;10211026;29;20024;-84
2021/12/10 00:08:04;;;;;;;147.17;53.17;;;-0.70;99.90;;;;;;10208290;29;20131;-85
2021/12/10 00:13:07;;;;;;;148.20;53.60;;;-0.70;99.90;;;;;;10211366;29;20436;-86
2021/12/10 00:18:11;;;;;;;139.10;53.13;;;-0.70;99.90;;;;;;10198743;29;20036;-85
2021/12/10 00:23:19;;;;;;;146.33;49.80;;;-0.70;99.90;;;;;;10206894;29;20068;-85
2021/12/10 00:28:27;;;;;;;157.93;58.87;;;-0.70;99.90;;;;;;10194668;29;20118;-84
2021/12/10 00:33:33;;;;;;;158.77;56.30;;;-0.70;99.90;;;;;;10209286;29;20539;-85
2021/12/10 00:38:35;;;;;;;150.18;56.25;;;-0.70;99.90;;;;;;10206636;29;20417;-84
2021/12/10 00:43:37;;;;;;;209.17;85.03;;;-0.70;99.90;;;;;;10207972;29;20727;-85
2021/12/10 00:48:38;;;;;;;174.07;70.37;;;-0.60;99.90;;;;;;10201298;29;20044;-85
2021/12/10 00:53:40;;;;;;;167.17;65.83;;;-0.60;99.90;;;;;;10210079;29;20031;-86
2021/12/10 00:58:41;;;;;;;162.90;60.13;;;-0.60;99.90;;;;;;10169712;29;20052;-85
2021/12/10 01:03:50;;;;;;;175.80;60.80;;;-0.60;99.90;;;;;;10170053;29;20111;-85
2021/12/10 01:08:56;;;;;;;147.73;59.03;;;-0.60;99.90;;;;;;10167539;29;20040;-84
2021/12/10 01:14:03;;;;;;;;;;;-0.70;99.90;;;;;;10153919;29;20024;-85
2021/12/10 01:29:56;;;;;;;157.80;59.10;;;-0.70;99.90;;;;;;10168894;29;20134;-85
2021/12/10 01:34:58;;;;;;;167.13;62.17;;;-0.70;99.90;;;;;;10150237;29;20380;-85
2021/12/10 01:39:59;;;;;;;189.90;68.03;;;-0.80;99.90;;;;;;10168746;29;20043;-85
2021/12/10 01:45:07;;;;;;;177.10;63.37;;;-0.80;99.90;;;;;;10168454;29;20433;-85
2021/12/10 01:50:08;;;;;;;163.03;62.73;;;-0.70;99.90;;;;;;10165631;29;20044;-86
2021/12/10 01:55:14;;;;;;;172.67;64.77;;;-0.70;99.90;;;;;;10167051;29;20559;-85
2021/12/10 02:00:16;;;;;;;159.07;63.35;;;-0.80;99.90;;;;;;10168452;29;20457;-85
2021/12/10 02:05:18;;;;;;;170.90;61.43;;;-0.70;99.90;;;;;;10165249;29;20144;-84
2021/12/10 02:10:22;;;;;;;162.70;58.77;;;-0.80;99.90;;;;;;10165670;29;20123;-85
2021/12/10 02:15:26;;;;;;;170.57;59.63;;;-0.70;99.90;;;;;;10167691;29;20040;-85
2021/12/10 02:20:31;;;;;;;163.70;60.77;;;-0.70;99.90;;;;;;10148838;29;20032;-85
2021/12/10 02:25:38;;;;;;;146.63;56.17;;;-0.70;99.90;;;;;;10167411;29;20046;-87
2021/12/10 02:30:40;;;;;;;150.43;57.33;;;-0.70;99.90;;;;;;10167669;29;20038;-86
2021/12/10 02:35:41;;;;;;;154.50;59.13;;;-0.70;99.90;;;;;;10166888;29;20413;-85
2021/12/10 02:40:45;;;;;;;165.77;61.53;;;-0.60;99.90;;;;;;10137919;29;20035;-85
2021/12/10 02:45:49;;;;;;;166.30;64.97;;;-0.60;99.90;;;;;;10166084;29;20021;-86
2021/12/10 02:50:53;;;;;;;162.07;57.60;;;-0.60;99.90;;;;;;10166736;29;20042;-85
2021/12/10 02:55:55;;;;;;;169.50;63.33;;;-0.60;99.90;;;;;;10145518;29;20052;-85
2021/12/10 03:01:07;;;;;;;172.23;62.13;;;-0.60;99.90;;;;;;10160590;29;20115;-86
2021/12/10 03:06:11;;;;;;;173.33;63.27;;;-0.60;99.90;;;;;;10171889;29;20115;-86
2021/12/10 03:11:13;;;;;;;160.67;64.37;;;-0.60;99.90;;;;;;10156733;29;20134;-86
2021/12/10 03:16:14;;;;;;;160.20;60.33;;;-0.60;99.90;;;;;;10157001;29;20028;-86
2021/12/10 03:21:15;;;;;;;156.93;61.00;;;-0.60;99.90;;;;;;10173818;29;20437;-86
2021/12/10 03:26:20;;;;;;;155.93;60.07;;;-0.60;99.90;;;;;;10155546;29;20036;-86
2021/12/10 03:31:23;;;;;;;165.73;65.13;;;-0.60;99.90;;;;;;10172926;29;20042;-85
2021/12/10 03:36:25;;;;;;;151.13;59.43;;;-0.60;99.90;;;;;;10172258;29;20028;-86
2021/12/10 03:41:26;;;;;;;156.13;58.00;;;-0.60;99.90;;;;;;10168881;29;20123;-85
2021/12/10 03:46:27;;;;;;;160.57;58.97;;;-0.70;99.90;;;;;;10152069;29;20126;-86
2021/12/10 03:51:27;;;;;;;157.63;62.97;;;-0.70;99.90;;;;;;10155391;29;20115;-86
2021/12/10 03:56:31;;;;;;;161.93;57.40;;;-0.70;99.90;;;;;;10171733;29;20075;-86
2021/12/10 04:01:37;;;;;;;154.93;59.70;;;-0.80;99.90;;;;;;10169644;29;20071;-86
2021/12/10 04:06:38;;;;;;;160.40;57.55;;;-0.80;99.90;;;;;;10163021;29;20024;-86
2021/12/10 04:11:39;;;;;;;149.33;55.93;;;-0.80;99.90;;;;;;10157268;29;20112;-86
2021/12/10 04:16:40;;;;;;;145.50;54.93;;;-0.80;99.90;;;;;;10170099;29;20029;-86
2021/12/10 04:21:42;;;;;;;156.50;58.30;;;-0.80;99.90;;;;;;10165698;29;20030;-87
2021/12/10 04:26:44;;;;;;;164.10;70.30;;;-0.80;99.90;;;;;;10170600;29;20468;-85
2021/12/10 04:31:44;;;;;;;168.13;64.40;;;-0.80;99.90;;;;;;10170354;29;20040;-83
2021/12/10 04:36:45;;;;;;;167.73;64.13;;;-0.80;99.90;;;;;;10169867;29;20079;-84
2021/12/10 04:41:46;;;;;;;159.80;64.00;;;-0.80;99.90;;;;;;10166186;29;20127;-85
2021/12/10 04:46:47;;;;;;;187.83;66.57;;;-0.80;99.90;;;;;;10170753;29;20040;-87
2021/12/10 04:51:51;;;;;;;173.43;66.47;;;-0.80;99.90;;;;;;10153694;29;20052;-86
2021/12/10 04:56:57;;;;;;;176.20;68.10;;;-0.80;99.90;;;;;;10156963;29;20048;-88
2021/12/10 05:02:00;;;;;;;181.20;69.63;;;-0.80;99.90;;;;;;10153104;29;20020;-86
2021/12/10 05:07:04;;;;;;;187.67;68.57;;;-0.80;99.90;;;;;;10163242;29;20031;-83
2021/12/10 05:12:05;;;;;;;176.70;70.77;;;-0.80;99.90;;;;;;10154120;29;20032;-88
2021/12/10 05:17:08;;;;;;;202.73;77.23;;;-0.80;99.90;;;;;;10168578;29;20075;-89
2021/12/10 05:22:12;;;;;;;198.00;72.80;;;-0.80;99.90;;;;;;10163040;29;20120;-85
2021/12/10 05:27:13;;;;;;;203.97;77.27;;;-0.80;99.90;;;;;;10162700;29;20072;-87
2021/12/10 05:32:16;;;;;;;197.07;76.03;;;-0.80;99.90;;;;;;10153218;29;20123;-85
2021/12/10 05:37:18;;;;;;;212.23;80.63;;;-0.80;99.90;;;;;;10167422;29;20547;-85
2021/12/10 05:42:19;;;;;;;204.03;77.70;;;-0.70;99.90;;;;;;10165501;29;20536;-86
2021/12/10 05:47:20;;;;;;;210.53;78.57;;;-0.70;99.90;;;;;;10152023;29;20048;-85
2021/12/10 05:52:20;;;;;;;219.87;78.80;;;-0.70;99.90;;;;;;10168387;29;20044;-85
2021/12/10 05:57:21;;;;;;;211.33;76.97;;;-0.80;99.90;;;;;;10164873;29;20104;-85
2021/12/10 06:02:22;;;;;;;206.60;76.27;;;-0.80;99.90;;;;;;10165803;29;20032;-85
2021/12/10 06:07:23;;;;;;;231.53;79.40;;;-0.80;99.90;;;;;;10150590;29;20028;-85
2021/12/10 06:12:23;;;;;;;216.37;77.50;;;-0.80;99.90;;;;;;10167971;29;20536;-87
2021/12/10 06:17:24;;;;;;;315.10;105.03;;;-0.80;99.90;;;;;;10167870;29;20084;-87
2021/12/10 06:22:26;;;;;;;273.67;95.33;;;-0.80;99.90;;;;;;10168241;29;20441;-85
2021/12/10 06:27:27;;;;;;;224.33;79.20;;;-0.80;99.90;;;;;;10167641;29;20036;-86
2021/12/10 06:32:28;;;;;;;214.17;74.97;;;-0.80;99.90;;;;;;10168381;29;20071;-87
2021/12/10 06:37:29;;;;;;;182.97;61.23;;;-0.70;99.90;;;;;;10169104;29;20039;-84
2021/12/10 06:42:30;;;;;;;159.50;60.90;;;-0.70;99.90;;;;;;10176601;29;20039;-84
2021/12/10 06:47:30;;;;;;;151.70;54.80;;;-0.60;99.90;;;;;;10175433;29;20020;-85
2021/12/10 06:52:31;;;;;;;103.53;41.13;;;-0.70;99.90;;;;;;10158177;29;20402;-84
2021/12/10 06:57:34;;;;;;;108.00;41.10;;;-0.60;99.90;;;;;;10175638;29;20044;-86
2021/12/10 07:02:35;;;;;;;130.93;48.80;;;-0.60;99.90;;;;;;10174738;29;20487;-88
2021/12/10 07:07:38;;;;;;;161.10;62.47;;;-0.60;99.90;;;;;;10175223;29;20063;-85
2021/12/10 07:12:40;;;;;;;77.70;32.40;;;-0.60;99.90;;;;;;10174676;29;20469;-84
2021/12/10 07:17:43;;;;;;;116.70;51.50;;;-0.50;99.90;;;;;;10157439;29;20032;-85
2021/12/10 07:22:44;;;;;;;123.00;56.90;;;-0.40;99.90;;;;;;10174161;29;20373;-86
2021/12/10 07:27:44;;;;;;;192.70;89.33;;;-0.40;99.90;;;;;;10174546;29;20027;-84
2021/12/10 07:32:45;;;;;;;149.90;75.43;;;-0.30;99.90;;;;;;10174253;29;20066;-84
2021/12/10 07:37:47;;;;;;;87.60;40.40;;;-0.20;99.90;;;;;;10174225;29;20034;-85
2021/12/10 07:42:48;;;;;;;74.67;35.07;;;-0.10;99.90;;;;;;10173320;29;20035;-83
2021/12/10 07:47:52;;;;;;;84.67;35.83;;;-0.10;99.90;;;;;;10173656;29;20100;-85
2021/12/10 07:52:57;;;;;;;97.00;43.77;;;-0.20;99.90;;;;;;10171935;29;20036;-85
2021/12/10 07:57:58;;;;;;;187.47;104.10;;;-0.20;99.90;;;;;;10173526;29;20488;-85
2021/12/10 08:03:00;;;;;;;107.37;59.43;;;-0.10;99.90;;;;;;10173400;29;20063;-86
2021/12/10 08:08:01;;;;;;;85.37;40.50;;;0.10;99.90;;;;;;10172393;29;20032;-85
2021/12/10 08:13:03;;;;;;;107.43;47.10;;;0.30;99.90;;;;;;10155061;29;20126;-84
2021/12/10 08:18:05;;;;;;;116.93;53.27;;;0.60;99.90;;;;;;10172885;29;20516;-85
2021/12/10 08:23:07;;;;;;;86.20;45.07;;;0.70;99.90;;;;;;10172316;29;20028;-84
2021/12/10 08:28:07;;;;;;;196.33;99.43;;;0.80;99.90;;;;;;10154500;29;20094;-84
2021/12/10 08:33:12;;;;;;;387.60;196.77;;;0.90;99.90;;;;;;10171738;29;20483;-84
2021/12/10 08:38:14;;;;;;;128.70;71.87;;;0.90;99.90;;;;;;10172261;29;20167;-85
2021/12/10 08:43:15;;;;;;;107.57;53.37;;;0.90;99.90;;;;;;10171532;29;20031;-84
2021/12/10 08:48:15;;;;;;;89.67;39.40;;;1.00;99.90;;;;;;10170908;29;20020;-85
2021/12/10 08:53:17;;;;;;;117.83;54.10;;;1.00;99.90;;;;;;10171521;29;20028;-84
2021/12/10 08:58:18;;;;;;;139.40;64.23;;;1.00;99.90;;;;;;10170546;29;20052;-85
2021/12/10 09:03:19;;;;;;;187.40;76.67;;;1.00;99.90;;;;;;10170147;29;20046;-84
2021/12/10 09:08:20;;;;;;;168.53;78.53;;;1.00;99.90;;;;;;10154684;29;20028;-84
2021/12/10 09:13:24;;;;;;;257.67;109.30;;;1.00;99.90;;;;;;10170603;29;20540;-84
2021/12/10 09:18:25;;;;;;;169.77;84.27;;;1.10;99.90;;;;;;10169502;29;20056;-85
2021/12/10 09:23:28;;;;;;;216.93;92.53;;;1.10;99.90;;;;;;10169908;29;20083;-84
2021/12/10 09:28:29;;;;;;;195.13;87.00;;;1.20;99.90;;;;;;10151974;29;20078;-84
2021/12/10 09:33:30;;;;;;;155.67;77.97;;;1.30;99.90;;;;;;10169173;29;20032;-84
2021/12/10 09:38:32;;;;;;;164.37;70.97;;;1.30;99.90;;;;;;10169238;29;20488;-84
2021/12/10 09:43:33;;;;;;;282.03;110.27;;;1.40;99.90;;;;;;10169116;29;20349;-86
2021/12/10 09:48:35;;;;;;;258.43;111.57;;;1.50;99.90;;;;;;10168599;29;20027;-84
2021/12/10 09:53:39;;;;;;;145.10;70.10;;;1.50;99.90;;;;;;10168405;29;20123;-84
2021/12/10 09:58:40;;;;;;;222.53;102.30;;;1.70;99.90;;;;;;10168074;29;20044;-84
2021/12/10 10:03:46;;;;;;;287.03;125.67;;;1.80;99.90;;;;;;10168955;29;20032;-84
2021/12/10 10:08:47;;;;;;;191.10;87.03;;;1.90;99.90;;;;;;10168378;29;20064;-84
2021/12/10 10:13:50;;;;;;;174.13;72.23;;;2.00;99.90;;;;;;10167721;29;20059;-84
2021/12/10 10:18:51;;;;;;;208.87;94.70;;;2.20;99.90;;;;;;10167774;29;20539;-86
2021/12/10 10:23:53;;;;;;;183.20;77.37;;;2.50;99.90;;;;;;10168645;29;20076;-85
2021/12/10 10:28:53;;;;;;;155.13;67.23;;;2.80;99.90;;;;;;10167880;29;20380;-87
2021/12/10 10:33:57;;;;;;;191.40;83.33;;;2.80;99.90;;;;;;10168063;29;20032;-86
2021/12/10 10:39:03;;;;;;;175.50;80.47;;;3.10;99.90;;;;;;10167911;29;20084;-85
2021/12/10 10:44:06;;;;;;;174.80;77.90;;;3.30;99.90;;;;;;10167563;29;20024;-85
2021/12/10 10:49:06;;;;;;;199.30;88.27;;;3.20;99.90;;;;;;10167651;29;20378;-86
2021/12/10 10:54:11;;;;;;;142.10;67.00;;;3.20;99.90;;;;;;10167113;29;20048;-86
2021/12/10 10:59:16;;;;;;;155.83;67.67;;;3.30;99.90;;;;;;10151079;29;20028;-86
2021/12/10 11:04:27;;;;;;;144.07;66.33;;;3.20;99.90;;;;;;10167678;29;20078;-85
2021/12/10 11:09:30;;;;;;;131.43;62.97;;;3.20;99.90;;;;;;10167342;29;20064;-86
2021/12/10 11:14:39;;;;;;;133.73;60.00;;;3.10;99.90;;;;;;10167570;29;20036;-86
2021/12/10 11:19:47;;;;;;;134.33;64.53;;;3.10;99.90;;;;;;10167346;29;20039;-87
2021/12/10 11:24:57;;;;;;;139.93;64.97;;;3.10;99.90;;;;;;10169752;29;20032;-86
2021/12/10 11:30:18;;;;;;;134.87;60.07;;;3.10;99.90;;;;;;10174264;29;20040;-88
2021/12/10 11:35:30;;;;;;;250.37;96.97;;;3.10;99.90;;;;;;10173790;29;20102;-88
2021/12/10 11:40:53;;;;;;;115.93;53.80;;;3.00;99.90;;;;;;10156822;29;20034;-88
2021/12/10 11:51:27;;;;;;;214.80;74.10;;;3.10;99.90;;;;;;10173451;29;20051;-88
2021/12/10 11:56:41;;;;;;;103.67;46.43;;;3.00;99.90;;;;;;10172963;29;20480;-88
2021/12/10 12:01:50;;;;;;;86.03;36.67;;;3.00;99.90;;;;;;10156116;29;20111;-88
2021/12/10 12:07:22;;;;;;;101.63;42.90;;;3.00;99.90;;;;;;10156080;29;20044;-88
2021/12/10 12:12:29;;;;;;;273.13;122.73;;;2.90;99.90;;;;;;10155379;29;20398;-88
2021/12/10 12:17:36;;;;;;;149.90;66.47;;;2.90;99.90;;;;;;10173069;29;20037;-87
2021/12/10 12:28:12;;;;;;;99.47;43.30;;;2.70;99.90;;;;;;10172427;29;20044;-88
2021/12/10 12:33:13;;;;;;;267.93;127.70;;;2.90;99.90;;;;;;10171920;29;20578;-86
2021/12/10 12:38:27;;;;;;;320.77;117.70;;;2.90;99.90;;;;;;10170712;29;20054;-86
2021/12/10 12:43:28;;;;;;;381.20;158.03;;;2.70;99.90;;;;;;10171859;29;20024;-88
2021/12/10 12:48:28;;;;;;;274.03;144.20;;;2.50;99.90;;;;;;10170755;29;20024;-87
2021/12/10 12:53:33;;;;;;;110.93;55.87;;;2.50;99.90;;;;;;10171148;29;20032;-88
2021/12/10 12:59:03;;;;;;;152.27;63.23;;;2.90;99.90;;;;;;10205874;29;20047;-88
2021/12/10 13:04:13;;;;;;;184.20;67.97;;;3.20;99.90;;;;;;10210157;29;20039;-88
2021/12/10 13:09:24;;;;;;;342.67;120.57;;;3.30;99.90;;;;;;10209499;29;20055;-88
2021/12/10 13:14:33;;;;;;;177.63;80.37;;;3.10;99.90;;;;;;10208514;29;20039;-87
2021/12/10 13:19:33;;;;;;;174.80;68.90;;;2.90;99.90;;;;;;10209271;29;20034;-87
2021/12/10 13:24:36;;;;;;;236.27;96.50;;;2.90;99.90;;;;;;10178417;29;20070;-87
2021/12/10 13:29:37;;;;;;;379.33;142.10;;;2.80;99.90;;;;;;10201698;29;20276;-87
2021/12/10 13:34:39;;;;;;;372.97;137.13;;;2.70;99.90;;;;;;10209172;29;20035;-86
2021/12/10 13:39:42;;;;;;;334.17;126.07;;;2.60;99.90;;;;;;10208867;29;20417;-86
2021/12/10 13:44:50;;;;;;;262.03;109.17;;;2.40;99.90;;;;;;10205022;29;20027;-87
2021/12/10 13:50:02;;;;;;;167.17;73.57;;;2.20;99.90;;;;;;10192969;29;20043;-86
2021/12/10 13:55:06;;;;;;;430.93;159.23;;;1.90;99.90;;;;;;10193723;29;20052;-86
2021/12/10 14:00:11;;;;;;;333.70;138.47;;;1.80;99.90;;;;;;10168971;29;20036;-86
2021/12/10 14:05:18;;;;;;;293.37;115.37;;;1.60;99.90;;;;;;10168546;29;20476;-86
2021/12/10 14:10:32;;;;;;;189.47;73.03;;;1.40;99.90;;;;;;10147384;29;20044;-84
2021/12/10 14:21:00;;;;;;;157.23;61.80;;;1.30;99.90;;;;;;10163282;29;20056;-86
2021/12/10 14:26:06;;;;;;;171.80;72.13;;;1.10;99.90;;;;;;10184216;29;20028;-84
2021/12/10 14:31:16;;;;;;;187.65;82.50;;;0.90;99.90;;;;;;10155872;29;20311;-85
2021/12/10 14:36:19;;;;;;;208.10;89.37;;;0.80;99.90;;;;;;10152153;29;20510;-83
2021/12/10 14:41:35;;;;;;;251.03;110.90;;;0.60;99.90;;;;;;10164072;29;20039;-83
2021/12/10 14:46:38;;;;;;;285.10;117.30;;;0.40;99.90;;;;;;10165534;29;20469;-83
2021/12/10 14:51:41;;;;;;;292.70;117.73;;;0.10;99.90;;;;;;10165756;29;20051;-83
2021/12/10 14:56:57;;;;;;;364.00;142.97;;;-0.10;99.90;;;;;;10167640;29;20051;-85
2021/12/10 15:02:05;;;;;;;472.33;188.07;;;-0.30;99.90;;;;;;10173069;29;20028;-86
2021/12/10 15:07:15;;;;;;;534.87;252.90;;;-0.40;99.90;;;;;;10167864;29;20040;-85
2021/12/10 15:12:16;;;;;;;686.30;318.30;;;-0.50;99.90;;;;;;10170333;29;20425;-83
2021/12/10 15:17:17;;;;;;;465.43;210.77;;;-0.50;99.90;;;;;;10168727;29;20076;-83
2021/12/10 15:22:35;;;;;;;425.47;182.33;;;-0.50;99.90;;;;;;10175599;29;20028;-83
2021/12/10 15:27:38;;;;;;;439.20;203.37;;;-0.70;99.90;;;;;;10149931;29;20036;-84
2021/12/10 15:32:53;;;;;;;347.30;155.53;;;-0.90;99.90;;;;;;10144430;29;20066;-84
2021/12/10 15:38:24;;;;;;;278.00;112.13;;;-0.90;99.90;;;;;;10173737;29;20665;-87
2021/12/10 15:43:26;;;;;;;384.63;145.23;;;-1.00;99.90;;;;;;10137258;29;20072;-86
2021/12/10 15:48:30;;;;;;;396.47;152.67;;;-1.10;99.90;;;;;;10166662;29;20023;-88
2021/12/10 15:53:35;;;;;;;455.63;183.20;;;-1.10;99.90;;;;;;10155022;29;20107;-89
2021/12/10 15:58:37;;;;;;;399.55;156.23;;;-1.10;99.90;;;;;;10204609;29;20043;-84
2021/12/10 16:03:48;;;;;;;420.40;161.47;;;-1.00;99.90;;;;;;10197670;29;20110;-84
2021/12/10 16:08:53;;;;;;;420.83;157.60;;;-1.10;99.90;;;;;;10189801;29;20110;-86
2021/12/10 16:13:55;;;;;;;355.27;125.73;;;-1.10;99.90;;;;;;10203323;29;20035;-82
2021/12/10 16:18:59;;;;;;;339.67;118.80;;;-1.10;99.90;;;;;;10194074;29;20641;-82
2021/12/10 16:24:07;;;;;;;375.97;129.47;;;-1.10;99.90;;;;;;10187971;29;20071;-84
2021/12/10 16:29:12;;;;;;;290.23;100.40;;;-1.10;99.90;;;;;;10194200;29;20176;-83
2021/12/10 16:34:16;;;;;;;277.73;102.28;;;-1.10;99.90;;;;;;10208763;29;20043;-83
2021/12/10 16:39:17;;;;;;;239.20;94.10;;;-1.10;99.90;;;;;;10207076;29;20102;-83
2021/12/10 16:44:19;;;;;;;202.13;77.97;;;-1.10;99.90;;;;;;10197457;29;20039;-84
2021/12/10 16:49:23;;;;;;;256.30;89.27;;;-1.20;99.90;;;;;;10201383;29;20027;-82
2021/12/10 16:54:35;;;;;;;320.90;107.57;;;-1.40;99.90;;;;;;10177316;29;20040;-85
2021/12/10 16:59:37;;;;;;;273.27;100.13;;;-1.50;99.90;;;;;;10205275;29;20032;-85
2021/12/10 17:04:41;;;;;;;211.80;81.87;;;-1.50;99.90;;;;;;10198717;29;20428;-82
2021/12/10 17:09:44;;;;;;;204.67;77.03;;;-1.60;99.90;;;;;;10207664;29;20028;-85
2021/12/10 17:14:54;;;;;;;247.07;85.30;;;-1.70;99.90;;;;;;10204122;29;20023;-81
2021/12/10 17:20:03;;;;;;;213.83;78.67;;;-1.70;99.90;;;;;;10208693;29;20024;-84
2021/12/10 17:25:16;;;;;;;171.47;67.03;;;-1.70;99.90;;;;;;10208554;29;20042;-82
2021/12/10 17:30:19;;;;;;;179.97;62.63;;;-1.70;99.90;;;;;;10207669;29;20102;-80
2021/12/10 17:35:26;;;;;;;161.70;63.03;;;-1.80;99.90;;;;;;10206383;29;20027;-83
2021/12/10 17:40:33;;;;;;;234.20;79.80;;;-1.90;99.90;;;;;;10189828;29;20047;-80
2021/12/10 17:45:39;;;;;;;202.77;76.83;;;-2.00;99.90;;;;;;10206766;29;20024;-81
2021/12/10 17:50:44;;;;;;;226.67;86.43;;;-1.90;99.90;;;;;;10193726;29;20657;-85
2021/12/10 17:55:50;;;;;;;251.93;96.53;;;-2.00;99.90;;;;;;10192638;29;20072;-82
2021/12/10 18:00:59;;;;;;;196.20;79.20;;;-2.10;99.90;;;;;;10165291;29;20695;-86
2021/12/10 18:06:00;;;;;;;216.23;85.17;;;-2.10;99.90;;;;;;10159949;29;20044;-82
2021/12/10 18:11:05;;;;;;;245.97;93.77;;;-2.20;99.90;;;;;;10136622;29;20549;-85
2021/12/10 18:16:12;;;;;;;269.77;101.23;;;-2.30;99.90;;;;;;10166223;29;20021;-81
2021/12/10 18:21:19;;;;;;;222.33;92.30;;;-2.40;99.90;;;;;;10139970;29;20024;-86
2021/12/10 18:26:45;;;;;;;222.07;84.93;;;-2.50;99.90;;;;;;10167217;29;20420;-83
2021/12/10 18:31:50;;;;;;;212.07;80.03;;;-2.60;99.90;;;;;;10118897;29;20738;-85
2021/12/10 18:36:53;;;;;;;227.20;85.90;;;-2.60;99.90;;;;;;10198063;29;20542;-87
2021/12/10 18:42:05;;;;;;;281.77;107.97;;;-2.60;99.90;;;;;;10173823;29;20028;-85
2021/12/10 18:47:07;;;;;;;337.43;123.90;;;-2.60;99.90;;;;;;10148977;29;20025;-82
2021/12/10 18:52:12;;;;;;;278.33;113.30;;;-2.60;99.90;;;;;;10140142;29;20752;-84
2021/12/10 18:57:18;;;;;;;322.13;122.30;;;-2.40;99.90;;;;;;10135588;29;20049;-83
2021/12/10 19:02:25;;;;;;;258.67;96.38;;;-2.50;99.90;;;;;;10148177;29;20057;-85
2021/12/10 19:07:38;;;;;;;254.23;94.27;;;-2.40;99.90;;;;;;10162361;29;20115;-85
2021/12/10 19:12:50;;;;;;;300.30;116.40;;;-2.40;99.90;;;;;;10174593;29;20044;-85
2021/12/10 19:18:04;;;;;;;286.97;111.17;;;-2.40;99.90;;;;;;10173831;29;20035;-84
2021/12/10 19:23:17;;;;;;;278.23;105.73;;;-2.50;99.90;;;;;;10170020;29;20036;-84
2021/12/10 19:28:27;;;;;;;275.47;98.60;;;-2.40;99.90;;;;;;10173831;29;20078;-85
2021/12/10 19:33:36;;;;;;;271.90;104.87;;;-2.40;99.90;;;;;;10173927;29;20043;-85
2021/12/10 19:38:46;;;;;;;314.30;116.43;;;-2.40;99.90;;;;;;10155435;29;20036;-87
2021/12/10 19:43:51;;;;;;;320.00;117.43;;;-2.40;99.90;;;;;;10167872;29;20102;-84
2021/12/10 19:49:00;;;;;;;274.10;98.57;;;-2.50;99.90;;;;;;10163991;29;20056;-86
2021/12/10 19:54:10;;;;;;;275.13;99.23;;;-2.60;99.90;;;;;;10172709;29;20056;-85
2021/12/10 19:59:26;;;;;;;291.23;94.30;;;-2.60;99.90;;;;;;10159818;29;20028;-87
2021/12/10 20:04:31;;;;;;;254.73;89.78;;;-2.50;99.90;;;;;;10157477;29;20036;-84
2021/12/10 20:09:35;;;;;;;245.10;89.07;;;-2.50;99.90;;;;;;10166126;29;20405;-84
2021/12/10 20:14:51;;;;;;;242.00;84.17;;;-2.40;99.90;;;;;;10169667;29;20036;-87
2021/12/10 20:20:06;;;;;;;225.82;76.18;;;-2.30;99.90;;;;;;10170130;29;20076;-86
2021/12/10 20:25:15;;;;;;;224.83;71.60;;;-2.20;99.90;;;;;;10152381;29;20473;-87
2021/12/10 20:30:23;;;;;;;253.17;72.07;;;-2.10;99.90;;;;;;10171381;29;20161;-83
2021/12/10 20:36:05;;;;;;;246.00;70.17;;;-2.10;99.90;;;;;;10142654;29;20532;-84
2021/12/10 20:41:21;;;;;;;217.90;65.03;;;-1.90;99.90;;;;;;10149090;29;20032;-84
2021/12/10 20:47:15;;;;;;;262.90;71.53;;;-1.90;99.90;;;;;;10165011;29;20115;-85
2021/12/10 20:58:21;;;;;;;275.75;69.38;;;-1.70;99.90;;;;;;10175421;28;20044;-85
2021/12/10 21:03:30;;;;;;;276.43;69.10;;;-1.60;99.90;;;;;;10163326;29;20039;-84
2021/12/10 21:08:47;;;;;;;208.27;60.37;;;-1.50;99.90;;;;;;10169040;29;20036;-84
2021/12/10 21:13:51;;;;;;;231.43;61.47;;;-1.40;99.90;;;;;;10163853;29;20370;-84
2021/12/10 21:18:57;;;;;;;322.93;70.90;;;-1.40;99.90;;;;;;10169132;29;20028;-85
2021/12/10 21:24:10;;;;;;;208.65;59.53;;;-1.30;99.90;;;;;;10152429;29;20020;-84
2021/12/10 21:29:33;;;;;;;366.10;82.37;;;-1.30;99.90;;;;;;10164189;29;20025;-85
2021/12/10 21:34:40;;;;;;;422.83;84.67;;;-1.30;99.90;;;;;;10165667;29;20465;-86
2021/12/10 21:39:51;;;;;;;422.27;80.00;;;-1.20;99.90;;;;;;10168450;29;20016;-84
2021/12/10 21:45:00;;;;;;;414.03;84.73;;;-1.20;99.90;;;;;;10168001;29;20437;-87
2021/12/10 21:50:11;;;;;;;267.73;68.93;;;-1.20;99.90;;;;;;10151074;29;20028;-84
2021/12/10 21:55:35;;;;;;;382.83;77.03;;;-1.10;99.90;;;;;;10151296;29;20666;-85
2021/12/10 22:00:52;;;;;;;580.93;96.30;;;-1.00;99.90;;;;;;10167662;29;20350;-85
2021/12/10 22:06:01;;;;;;;586.60;131.43;;;-1.00;99.90;;;;;;10168059;29;20028;-89
2021/12/10 22:11:13;;;;;;;683.10;139.13;;;-0.90;99.90;;;;;;10164372;29;20531;-85
2021/12/10 22:16:19;;;;;;;632.93;127.77;;;-0.90;99.90;;;;;;10150783;29;20032;-82
2021/12/10 22:21:22;;;;;;;451.67;103.97;;;-0.90;99.90;;;;;;10167343;29;20431;-84
2021/12/10 22:26:23;;;;;;;523.13;119.10;;;-0.80;99.90;;;;;;10166255;29;20040;-82
2021/12/10 22:31:29;;;;;;;544.60;121.70;;;-0.80;99.90;;;;;;10167695;29;20064;-82
2021/12/10 22:36:37;;;;;;;469.50;108.93;;;-0.80;99.90;;;;;;10167025;29;20322;-82
2021/12/10 22:41:46;;;;;;;409.60;76.07;;;-0.70;99.90;;;;;;10161359;29;20461;-85
2021/12/10 22:46:51;;;;;;;479.90;98.27;;;-0.70;99.90;;;;;;10167089;29;20032;-84
2021/12/10 22:52:12;;;;;;;403.07;83.73;;;-0.70;99.90;;;;;;10148405;29;20032;-86
2021/12/10 22:57:20;;;;;;;421.53;80.67;;;-0.70;99.90;;;;;;10166210;29;20477;-83
2021/12/10 23:02:28;;;;;;;483.17;84.67;;;-0.70;99.90;;;;;;10168000;29;20028;-84
2021/12/10 23:07:37;;;;;;;531.23;112.70;;;-0.70;99.90;;;;;;10176249;29;20028;-84
2021/12/10 23:12:44;;;;;;;446.50;83.93;;;-0.70;99.90;;;;;;10143904;29;20071;-85
2021/12/10 23:17:50;;;;;;;356.47;71.33;;;-0.80;99.90;;;;;;10174999;29;20096;-84
2021/12/10 23:22:51;;;;;;;449.20;76.57;;;-0.80;99.90;;;;;;10170635;29;20032;-84
2021/12/10 23:27:59;;;;;;;409.27;76.53;;;-0.80;99.90;;;;;;10178339;29;20598;-83
2021/12/10 23:33:09;;;;;;;301.43;71.63;;;-0.80;99.90;;;;;;10170839;29;20032;-83
2021/12/10 23:38:12;;;;;;;316.03;75.50;;;-0.80;99.90;;;;;;10170639;29;20127;-85
2021/12/10 23:43:27;;;;;;;408.60;84.70;;;-0.80;99.90;;;;;;10178517;29;20040;-83
2021/12/10 23:48:47;;;;;;;393.90;96.03;;;-0.80;99.90;;;;;;10169032;29;20469;-83
2021/12/10 23:53:49;;;;;;;389.43;77.60;;;-0.80;99.90;;;;;;10156255;29;20045;-83
2021/12/10 23:58:54;;;;;;;499.53;87.93;;;-0.80;99.90;;;;;;10157849;29;20499;-85
